sensor_id;sensor_type;location;lat;lon;timestamp;P1;durP1;ratioP1;P2;durP2;ratioP2
61291;SDS011;47165;42.664;23.368;2023-07-13T00:00:28;14.30;;;7.93;;
61291;SDS011;47165;42.664;23.368;2023-07-13T00:02:55;9.80;;;5.85;;
61291;SDS011;47165;42.664;23.368;2023-07-13T00:05:21;13.10;;;8.57;;
61291;SDS011;47165;42.664;23.368;2023-07-13T00:07:49;14.00;;;7.65;;
61291;SDS011;47165;42.664;23.368;2023-07-13T00:10:15;8.40;;;5.82;;
61291;SDS011;47165;42.664;23.368;2023-07-13T00:12:42;10.32;;;4.68;;
61291;SDS011;47165;42.664;23.368;2023-07-13T00:15:13;5.40;;;3.53;;
61291;SDS011;47165;42.664;23.368;2023-07-13T00:17:46;9.18;;;5.25;;
61291;SDS011;47165;42.664;23.368;2023-07-13T00:20:12;6.75;;;4.03;;
61291;SDS011;47165;42.664;23.368;2023-07-13T00:22:38;5.72;;;3.20;;
61291;SDS011;47165;42.664;23.368;2023-07-13T00:25:03;5.25;;;3.83;;
61291;SDS011;47165;42.664;23.368;2023-07-13T00:27:31;4.30;;;2.97;;
61291;SDS011;47165;42.664;23.368;2023-07-13T00:29:57;6.25;;;3.45;;
61291;SDS011;47165;42.664;23.368;2023-07-13T00:32:25;4.60;;;3.60;;
61291;SDS011;47165;42.664;23.368;2023-07-13T00:34:51;3.42;;;3.03;;
61291;SDS011;47165;42.664;23.368;2023-07-13T00:37:17;5.10;;;3.28;;
61291;SDS011;47165;42.664;23.368;2023-07-13T00:39:43;7.50;;;2.90;;
61291;SDS011;47165;42.664;23.368;2023-07-13T00:42:11;9.60;;;3.75;;
61291;SDS011;47165;42.664;23.368;2023-07-13T00:44:37;5.90;;;3.47;;
61291;SDS011;47165;42.664;23.368;2023-07-13T00:47:04;4.40;;;3.33;;
61291;SDS011;47165;42.664;23.368;2023-07-13T00:49:30;6.85;;;2.90;;
61291;SDS011;47165;42.664;23.368;2023-07-13T00:52:05;4.80;;;3.53;;
61291;SDS011;47165;42.664;23.368;2023-07-13T00:54:34;4.78;;;3.35;;
61291;SDS011;47165;42.664;23.368;2023-07-13T00:57:04;5.90;;;3.60;;
61291;SDS011;47165;42.664;23.368;2023-07-13T00:59:33;10.95;;;6.05;;
61291;SDS011;47165;42.664;23.368;2023-07-13T01:02:01;11.43;;;4.68;;
61291;SDS011;47165;42.664;23.368;2023-07-13T01:04:28;8.07;;;4.55;;
61291;SDS011;47165;42.664;23.368;2023-07-13T01:06:54;6.18;;;3.40;;
61291;SDS011;47165;42.664;23.368;2023-07-13T01:09:20;5.35;;;3.42;;
61291;SDS011;47165;42.664;23.368;2023-07-13T01:11:46;6.22;;;3.72;;
61291;SDS011;47165;42.664;23.368;2023-07-13T01:14:13;5.28;;;3.47;;
61291;SDS011;47165;42.664;23.368;2023-07-13T01:16:40;5.18;;;3.50;;
61291;SDS011;47165;42.664;23.368;2023-07-13T01:19:12;6.72;;;3.67;;
61291;SDS011;47165;42.664;23.368;2023-07-13T01:22:01;6.53;;;3.15;;
61291;SDS011;47165;42.664;23.368;2023-07-13T01:24:27;4.38;;;3.05;;
61291;SDS011;47165;42.664;23.368;2023-07-13T01:26:53;6.13;;;3.13;;
61291;SDS011;47165;42.664;23.368;2023-07-13T01:29:18;3.45;;;2.45;;
61291;SDS011;47165;42.664;23.368;2023-07-13T01:31:44;5.65;;;3.50;;
61291;SDS011;47165;42.664;23.368;2023-07-13T01:34:10;9.05;;;3.65;;
61291;SDS011;47165;42.664;23.368;2023-07-13T01:36:35;4.43;;;3.30;;
61291;SDS011;47165;42.664;23.368;2023-07-13T01:39:02;11.80;;;3.22;;
61291;SDS011;47165;42.664;23.368;2023-07-13T01:41:28;10.43;;;5.75;;
61291;SDS011;47165;42.664;23.368;2023-07-13T01:43:54;9.85;;;4.88;;
61291;SDS011;47165;42.664;23.368;2023-07-13T01:46:19;7.60;;;3.42;;
61291;SDS011;47165;42.664;23.368;2023-07-13T01:48:45;5.53;;;3.58;;
61291;SDS011;47165;42.664;23.368;2023-07-13T01:51:11;11.43;;;5.53;;
61291;SDS011;47165;42.664;23.368;2023-07-13T01:53:39;8.18;;;4.28;;
61291;SDS011;47165;42.664;23.368;2023-07-13T01:56:04;5.20;;;3.50;;
61291;SDS011;47165;42.664;23.368;2023-07-13T01:58:30;4.28;;;3.20;;
61291;SDS011;47165;42.664;23.368;2023-07-13T02:00:55;5.53;;;3.67;;
61291;SDS011;47165;42.664;23.368;2023-07-13T02:03:21;5.60;;;3.80;;
61291;SDS011;47165;42.664;23.368;2023-07-13T02:05:47;5.75;;;3.53;;
61291;SDS011;47165;42.664;23.368;2023-07-13T02:08:12;5.38;;;3.40;;
61291;SDS011;47165;42.664;23.368;2023-07-13T02:10:41;6.20;;;2.92;;
61291;SDS011;47165;42.664;23.368;2023-07-13T02:13:07;7.45;;;3.63;;
61291;SDS011;47165;42.664;23.368;2023-07-13T02:15:33;4.40;;;3.38;;
61291;SDS011;47165;42.664;23.368;2023-07-13T02:17:58;5.15;;;3.42;;
61291;SDS011;47165;42.664;23.368;2023-07-13T02:20:24;6.50;;;3.20;;
61291;SDS011;47165;42.664;23.368;2023-07-13T02:22:51;5.40;;;3.42;;
61291;SDS011;47165;42.664;23.368;2023-07-13T02:25:17;4.80;;;3.25;;
61291;SDS011;47165;42.664;23.368;2023-07-13T02:27:43;6.22;;;3.95;;
61291;SDS011;47165;42.664;23.368;2023-07-13T02:30:09;6.60;;;3.55;;
61291;SDS011;47165;42.664;23.368;2023-07-13T02:32:36;4.53;;;3.33;;
61291;SDS011;47165;42.664;23.368;2023-07-13T02:35:02;6.63;;;3.72;;
61291;SDS011;47165;42.664;23.368;2023-07-13T02:37:28;9.75;;;5.13;;
61291;SDS011;47165;42.664;23.368;2023-07-13T02:39:55;8.02;;;4.90;;
61291;SDS011;47165;42.664;23.368;2023-07-13T02:42:21;11.10;;;5.30;;
61291;SDS011;47165;42.664;23.368;2023-07-13T02:44:49;7.95;;;4.57;;
61291;SDS011;47165;42.664;23.368;2023-07-13T02:47:16;6.82;;;4.72;;
61291;SDS011;47165;42.664;23.368;2023-07-13T02:49:41;7.63;;;4.70;;
61291;SDS011;47165;42.664;23.368;2023-07-13T02:52:07;5.80;;;3.78;;
61291;SDS011;47165;42.664;23.368;2023-07-13T02:54:33;5.63;;;3.67;;
61291;SDS011;47165;42.664;23.368;2023-07-13T02:56:58;7.03;;;3.70;;
61291;SDS011;47165;42.664;23.368;2023-07-13T02:59:24;7.03;;;4.45;;
61291;SDS011;47165;42.664;23.368;2023-07-13T03:01:50;9.70;;;4.65;;
61291;SDS011;47165;42.664;23.368;2023-07-13T03:04:15;7.97;;;4.53;;
61291;SDS011;47165;42.664;23.368;2023-07-13T03:06:45;8.05;;;4.40;;
61291;SDS011;47165;42.664;23.368;2023-07-13T03:09:10;8.20;;;4.15;;
61291;SDS011;47165;42.664;23.368;2023-07-13T03:11:38;5.90;;;4.18;;
61291;SDS011;47165;42.664;23.368;2023-07-13T03:14:03;8.60;;;4.50;;
61291;SDS011;47165;42.664;23.368;2023-07-13T03:16:30;6.50;;;4.05;;
61291;SDS011;47165;42.664;23.368;2023-07-13T03:18:55;15.18;;;8.38;;
61291;SDS011;47165;42.664;23.368;2023-07-13T03:21:21;7.10;;;5.05;;
61291;SDS011;47165;42.664;23.368;2023-07-13T03:23:46;6.60;;;4.22;;
61291;SDS011;47165;42.664;23.368;2023-07-13T03:26:14;9.15;;;4.22;;
61291;SDS011;47165;42.664;23.368;2023-07-13T03:28:41;8.07;;;4.32;;
61291;SDS011;47165;42.664;23.368;2023-07-13T03:31:14;10.63;;;5.10;;
61291;SDS011;47165;42.664;23.368;2023-07-13T03:33:42;17.15;;;9.65;;
61291;SDS011;47165;42.664;23.368;2023-07-13T03:36:14;8.75;;;5.47;;
61291;SDS011;47165;42.664;23.368;2023-07-13T03:38:48;10.93;;;6.80;;
61291;SDS011;47165;42.664;23.368;2023-07-13T03:41:16;10.20;;;4.40;;
61291;SDS011;47165;42.664;23.368;2023-07-13T03:43:42;7.85;;;5.20;;
61291;SDS011;47165;42.664;23.368;2023-07-13T03:46:08;8.75;;;4.95;;
61291;SDS011;47165;42.664;23.368;2023-07-13T03:48:34;6.93;;;4.50;;
61291;SDS011;47165;42.664;23.368;2023-07-13T03:51:00;7.35;;;4.07;;
61291;SDS011;47165;42.664;23.368;2023-07-13T03:53:26;11.63;;;4.30;;
61291;SDS011;47165;42.664;23.368;2023-07-13T03:55:51;8.65;;;4.28;;
61291;SDS011;47165;42.664;23.368;2023-07-13T03:58:28;7.53;;;3.70;;
61291;SDS011;47165;42.664;23.368;2023-07-13T04:00:55;6.00;;;4.05;;
61291;SDS011;47165;42.664;23.368;2023-07-13T04:03:22;6.13;;;3.85;;
61291;SDS011;47165;42.664;23.368;2023-07-13T04:05:48;6.40;;;3.95;;
61291;SDS011;47165;42.664;23.368;2023-07-13T04:08:14;7.78;;;3.95;;
61291;SDS011;47165;42.664;23.368;2023-07-13T04:10:39;5.65;;;4.13;;
61291;SDS011;47165;42.664;23.368;2023-07-13T04:13:05;9.80;;;4.70;;
61291;SDS011;47165;42.664;23.368;2023-07-13T04:15:31;9.65;;;4.55;;
61291;SDS011;47165;42.664;23.368;2023-07-13T04:17:58;10.30;;;4.78;;
61291;SDS011;47165;42.664;23.368;2023-07-13T04:20:26;8.38;;;4.57;;
61291;SDS011;47165;42.664;23.368;2023-07-13T04:22:53;5.90;;;4.32;;
61291;SDS011;47165;42.664;23.368;2023-07-13T04:25:20;7.07;;;4.25;;
61291;SDS011;47165;42.664;23.368;2023-07-13T04:27:46;8.18;;;4.50;;
61291;SDS011;47165;42.664;23.368;2023-07-13T04:30:12;12.98;;;4.97;;
61291;SDS011;47165;42.664;23.368;2023-07-13T04:32:38;7.82;;;4.60;;
61291;SDS011;47165;42.664;23.368;2023-07-13T04:35:03;7.05;;;4.93;;
61291;SDS011;47165;42.664;23.368;2023-07-13T04:37:29;8.48;;;5.15;;
61291;SDS011;47165;42.664;23.368;2023-07-13T04:39:55;8.25;;;4.60;;
61291;SDS011;47165;42.664;23.368;2023-07-13T04:42:21;7.88;;;5.10;;
61291;SDS011;47165;42.664;23.368;2023-07-13T04:44:50;8.48;;;5.65;;
61291;SDS011;47165;42.664;23.368;2023-07-13T04:47:17;7.15;;;5.35;;
61291;SDS011;47165;42.664;23.368;2023-07-13T04:49:44;9.10;;;5.18;;
61291;SDS011;47165;42.664;23.368;2023-07-13T04:52:10;11.52;;;5.45;;
61291;SDS011;47165;42.664;23.368;2023-07-13T04:54:37;6.63;;;4.57;;
61291;SDS011;47165;42.664;23.368;2023-07-13T04:57:03;6.65;;;5.25;;
61291;SDS011;47165;42.664;23.368;2023-07-13T04:59:31;5.93;;;4.38;;
61291;SDS011;47165;42.664;23.368;2023-07-13T05:01:58;9.35;;;5.38;;
61291;SDS011;47165;42.664;23.368;2023-07-13T05:04:23;7.53;;;5.38;;
61291;SDS011;47165;42.664;23.368;2023-07-13T05:06:49;7.60;;;5.03;;
61291;SDS011;47165;42.664;23.368;2023-07-13T05:09:15;8.45;;;5.55;;
61291;SDS011;47165;42.664;23.368;2023-07-13T05:11:40;6.57;;;4.93;;
61291;SDS011;47165;42.664;23.368;2023-07-13T05:14:06;9.68;;;5.68;;
61291;SDS011;47165;42.664;23.368;2023-07-13T05:16:32;8.63;;;5.03;;
61291;SDS011;47165;42.664;23.368;2023-07-13T05:18:58;10.02;;;5.22;;
61291;SDS011;47165;42.664;23.368;2023-07-13T05:21:23;7.57;;;5.20;;
61291;SDS011;47165;42.664;23.368;2023-07-13T05:23:49;9.68;;;5.50;;
61291;SDS011;47165;42.664;23.368;2023-07-13T05:26:15;16.80;;;7.03;;
61291;SDS011;47165;42.664;23.368;2023-07-13T05:28:41;9.82;;;5.43;;
61291;SDS011;47165;42.664;23.368;2023-07-13T05:31:07;8.93;;;5.97;;
61291;SDS011;47165;42.664;23.368;2023-07-13T05:33:34;10.65;;;6.07;;
61291;SDS011;47165;42.664;23.368;2023-07-13T05:36:00;8.32;;;6.13;;
61291;SDS011;47165;42.664;23.368;2023-07-13T05:38:26;8.43;;;6.10;;
61291;SDS011;47165;42.664;23.368;2023-07-13T05:40:53;8.68;;;5.35;;
61291;SDS011;47165;42.664;23.368;2023-07-13T05:43:19;8.43;;;5.40;;
61291;SDS011;47165;42.664;23.368;2023-07-13T05:45:45;11.65;;;7.40;;
61291;SDS011;47165;42.664;23.368;2023-07-13T05:48:10;13.27;;;7.25;;
61291;SDS011;47165;42.664;23.368;2023-07-13T05:50:36;9.90;;;6.40;;
61291;SDS011;47165;42.664;23.368;2023-07-13T05:53:02;9.13;;;5.50;;
61291;SDS011;47165;42.664;23.368;2023-07-13T05:55:28;11.52;;;5.93;;
61291;SDS011;47165;42.664;23.368;2023-07-13T05:57:53;9.23;;;4.80;;
61291;SDS011;47165;42.664;23.368;2023-07-13T06:00:19;8.13;;;5.53;;
61291;SDS011;47165;42.664;23.368;2023-07-13T06:02:45;8.10;;;5.20;;
61291;SDS011;47165;42.664;23.368;2023-07-13T06:05:11;8.65;;;5.82;;
61291;SDS011;47165;42.664;23.368;2023-07-13T06:07:39;8.05;;;4.75;;
61291;SDS011;47165;42.664;23.368;2023-07-13T06:10:08;10.95;;;5.80;;
61291;SDS011;47165;42.664;23.368;2023-07-13T06:12:34;10.35;;;6.75;;
61291;SDS011;47165;42.664;23.368;2023-07-13T06:14:59;12.13;;;8.32;;
61291;SDS011;47165;42.664;23.368;2023-07-13T06:17:29;9.48;;;6.15;;
61291;SDS011;47165;42.664;23.368;2023-07-13T06:19:57;6.65;;;5.22;;
61291;SDS011;47165;42.664;23.368;2023-07-13T06:22:23;8.70;;;5.25;;
61291;SDS011;47165;42.664;23.368;2023-07-13T06:24:51;7.22;;;4.88;;
61291;SDS011;47165;42.664;23.368;2023-07-13T06:27:17;9.35;;;5.57;;
61291;SDS011;47165;42.664;23.368;2023-07-13T06:29:43;14.30;;;5.60;;
61291;SDS011;47165;42.664;23.368;2023-07-13T06:32:10;10.25;;;5.65;;
61291;SDS011;47165;42.664;23.368;2023-07-13T06:34:36;7.57;;;5.22;;
61291;SDS011;47165;42.664;23.368;2023-07-13T06:37:02;8.15;;;5.20;;
61291;SDS011;47165;42.664;23.368;2023-07-13T06:39:27;14.45;;;5.68;;
61291;SDS011;47165;42.664;23.368;2023-07-13T06:41:53;9.77;;;6.07;;
61291;SDS011;47165;42.664;23.368;2023-07-13T06:44:19;11.52;;;6.10;;
61291;SDS011;47165;42.664;23.368;2023-07-13T06:46:44;9.40;;;6.07;;
61291;SDS011;47165;42.664;23.368;2023-07-13T06:49:10;11.23;;;6.35;;
61291;SDS011;47165;42.664;23.368;2023-07-13T06:51:36;9.07;;;6.65;;
61291;SDS011;47165;42.664;23.368;2023-07-13T06:54:01;8.40;;;5.93;;
61291;SDS011;47165;42.664;23.368;2023-07-13T06:56:28;11.57;;;6.15;;
61291;SDS011;47165;42.664;23.368;2023-07-13T06:58:53;8.73;;;5.55;;
61291;SDS011;47165;42.664;23.368;2023-07-13T07:01:19;8.43;;;5.53;;
61291;SDS011;47165;42.664;23.368;2023-07-13T07:03:45;8.02;;;5.93;;
61291;SDS011;47165;42.664;23.368;2023-07-13T07:06:15;9.85;;;6.07;;
61291;SDS011;47165;42.664;23.368;2023-07-13T07:08:46;14.43;;;6.65;;
61291;SDS011;47165;42.664;23.368;2023-07-13T07:11:14;8.85;;;5.50;;
61291;SDS011;47165;42.664;23.368;2023-07-13T07:13:43;8.13;;;5.68;;
61291;SDS011;47165;42.664;23.368;2023-07-13T07:16:08;12.43;;;7.18;;
61291;SDS011;47165;42.664;23.368;2023-07-13T07:18:34;15.82;;;6.60;;
61291;SDS011;47165;42.664;23.368;2023-07-13T07:21:01;15.25;;;6.25;;
61291;SDS011;47165;42.664;23.368;2023-07-13T07:23:26;10.82;;;6.82;;
61291;SDS011;47165;42.664;23.368;2023-07-13T07:25:52;12.70;;;8.25;;
61291;SDS011;47165;42.664;23.368;2023-07-13T07:28:18;10.60;;;7.45;;
61291;SDS011;47165;42.664;23.368;2023-07-13T07:30:47;11.82;;;7.00;;
61291;SDS011;47165;42.664;23.368;2023-07-13T07:33:13;11.70;;;6.43;;
61291;SDS011;47165;42.664;23.368;2023-07-13T07:35:39;15.10;;;7.60;;
61291;SDS011;47165;42.664;23.368;2023-07-13T07:38:05;12.60;;;6.93;;
61291;SDS011;47165;42.664;23.368;2023-07-13T07:40:31;11.80;;;6.70;;
61291;SDS011;47165;42.664;23.368;2023-07-13T07:42:57;16.48;;;8.07;;
61291;SDS011;47165;42.664;23.368;2023-07-13T07:45:23;12.43;;;6.65;;
61291;SDS011;47165;42.664;23.368;2023-07-13T07:47:48;11.77;;;7.60;;
61291;SDS011;47165;42.664;23.368;2023-07-13T07:50:14;17.10;;;7.50;;
61291;SDS011;47165;42.664;23.368;2023-07-13T07:52:40;10.73;;;6.65;;
61291;SDS011;47165;42.664;23.368;2023-07-13T07:55:06;15.52;;;8.23;;
61291;SDS011;47165;42.664;23.368;2023-07-13T07:57:33;15.73;;;8.18;;
61291;SDS011;47165;42.664;23.368;2023-07-13T07:59:59;22.27;;;8.60;;
61291;SDS011;47165;42.664;23.368;2023-07-13T08:02:25;15.98;;;8.43;;
61291;SDS011;47165;42.664;23.368;2023-07-13T08:04:51;12.50;;;7.90;;
61291;SDS011;47165;42.664;23.368;2023-07-13T08:07:18;14.32;;;7.60;;
61291;SDS011;47165;42.664;23.368;2023-07-13T08:09:43;12.63;;;7.35;;
61291;SDS011;47165;42.664;23.368;2023-07-13T08:12:09;19.00;;;9.77;;
61291;SDS011;47165;42.664;23.368;2023-07-13T08:14:35;20.65;;;11.48;;
61291;SDS011;47165;42.664;23.368;2023-07-13T08:17:00;25.13;;;18.55;;
61291;SDS011;47165;42.664;23.368;2023-07-13T08:19:26;28.00;;;18.02;;
61291;SDS011;47165;42.664;23.368;2023-07-13T08:21:51;23.40;;;12.38;;
61291;SDS011;47165;42.664;23.368;2023-07-13T08:24:17;15.07;;;8.05;;
61291;SDS011;47165;42.664;23.368;2023-07-13T08:26:44;17.80;;;12.02;;
61291;SDS011;47165;42.664;23.368;2023-07-13T08:29:11;11.27;;;7.28;;
61291;SDS011;47165;42.664;23.368;2023-07-13T08:31:37;9.65;;;7.18;;
61291;SDS011;47165;42.664;23.368;2023-07-13T08:34:02;10.77;;;7.80;;
61291;SDS011;47165;42.664;23.368;2023-07-13T08:36:28;8.70;;;6.75;;
61291;SDS011;47165;42.664;23.368;2023-07-13T08:38:54;12.57;;;8.18;;
61291;SDS011;47165;42.664;23.368;2023-07-13T08:41:20;19.13;;;9.40;;
61291;SDS011;47165;42.664;23.368;2023-07-13T08:43:57;14.85;;;6.72;;
61291;SDS011;47165;42.664;23.368;2023-07-13T08:46:32;14.02;;;8.38;;
61291;SDS011;47165;42.664;23.368;2023-07-13T08:51:39;30.45;;;18.77;;
61291;SDS011;47165;42.664;23.368;2023-07-13T08:54:14;21.38;;;14.60;;
61291;SDS011;47165;42.664;23.368;2023-07-13T08:56:43;25.70;;;16.90;;
61291;SDS011;47165;42.664;23.368;2023-07-13T08:59:15;17.63;;;11.68;;
61291;SDS011;47165;42.664;23.368;2023-07-13T09:04:22;18.95;;;9.98;;
61291;SDS011;47165;42.664;23.368;2023-07-13T09:10:02;10.68;;;7.13;;
61291;SDS011;47165;42.664;23.368;2023-07-13T09:15:41;14.75;;;8.32;;
61291;SDS011;47165;42.664;23.368;2023-07-13T09:21:17;12.50;;;6.90;;
61291;SDS011;47165;42.664;23.368;2023-07-13T09:23:54;11.40;;;7.03;;
61291;SDS011;47165;42.664;23.368;2023-07-13T09:26:26;12.07;;;6.93;;
61291;SDS011;47165;42.664;23.368;2023-07-13T09:29:03;12.77;;;7.45;;
61291;SDS011;47165;42.664;23.368;2023-07-13T09:31:42;11.13;;;7.10;;
61291;SDS011;47165;42.664;23.368;2023-07-13T09:34:12;13.63;;;8.15;;
61291;SDS011;47165;42.664;23.368;2023-07-13T09:36:38;12.15;;;7.70;;
61291;SDS011;47165;42.664;23.368;2023-07-13T09:44:29;13.95;;;7.05;;
61291;SDS011;47165;42.664;23.368;2023-07-13T09:46:58;11.48;;;7.10;;
61291;SDS011;47165;42.664;23.368;2023-07-13T09:49:25;9.43;;;5.78;;
61291;SDS011;47165;42.664;23.368;2023-07-13T09:52:02;13.52;;;6.10;;
61291;SDS011;47165;42.664;23.368;2023-07-13T09:54:32;12.07;;;6.95;;
61291;SDS011;47165;42.664;23.368;2023-07-13T09:57:00;12.32;;;6.50;;
61291;SDS011;47165;42.664;23.368;2023-07-13T09:59:33;9.63;;;5.88;;
61291;SDS011;47165;42.664;23.368;2023-07-13T10:01:59;10.15;;;6.38;;
61291;SDS011;47165;42.664;23.368;2023-07-13T10:04:27;11.05;;;5.93;;
61291;SDS011;47165;42.664;23.368;2023-07-13T10:07:06;11.50;;;7.05;;
61291;SDS011;47165;42.664;23.368;2023-07-13T10:09:38;14.45;;;6.53;;
61291;SDS011;47165;42.664;23.368;2023-07-13T10:12:14;13.50;;;7.50;;
61291;SDS011;47165;42.664;23.368;2023-07-13T10:14:41;18.17;;;7.53;;
61291;SDS011;47165;42.664;23.368;2023-07-13T10:17:08;9.10;;;6.70;;
61291;SDS011;47165;42.664;23.368;2023-07-13T10:19:37;12.85;;;7.60;;
61291;SDS011;47165;42.664;23.368;2023-07-13T10:22:14;14.80;;;7.22;;
61291;SDS011;47165;42.664;23.368;2023-07-13T10:24:43;12.73;;;8.05;;
61291;SDS011;47165;42.664;23.368;2023-07-13T10:27:13;14.95;;;8.45;;
61291;SDS011;47165;42.664;23.368;2023-07-13T10:29:45;34.57;;;22.43;;
61291;SDS011;47165;42.664;23.368;2023-07-13T10:32:13;22.05;;;14.82;;
61291;SDS011;47165;42.664;23.368;2023-07-13T10:34:44;21.98;;;14.60;;
61291;SDS011;47165;42.664;23.368;2023-07-13T10:37:20;19.85;;;13.60;;
61291;SDS011;47165;42.664;23.368;2023-07-13T10:39:50;16.25;;;7.75;;
61291;SDS011;47165;42.664;23.368;2023-07-13T10:42:39;17.42;;;7.25;;
61291;SDS011;47165;42.664;23.368;2023-07-13T10:45:17;9.57;;;5.93;;
61291;SDS011;47165;42.664;23.368;2023-07-13T10:47:45;7.57;;;5.25;;
61291;SDS011;47165;42.664;23.368;2023-07-13T10:50:24;10.93;;;5.40;;
61291;SDS011;47165;42.664;23.368;2023-07-13T10:52:55;11.60;;;4.63;;
61291;SDS011;47165;42.664;23.368;2023-07-13T10:58:14;8.10;;;4.28;;
61291;SDS011;47165;42.664;23.368;2023-07-13T11:00:57;8.65;;;4.40;;
61291;SDS011;47165;42.664;23.368;2023-07-13T11:03:49;6.88;;;3.75;;
61291;SDS011;47165;42.664;23.368;2023-07-13T11:08:55;7.97;;;3.75;;
61291;SDS011;47165;42.664;23.368;2023-07-13T11:11:33;10.93;;;5.15;;
61291;SDS011;47165;42.664;23.368;2023-07-13T11:14:04;6.15;;;3.97;;
61291;SDS011;47165;42.664;23.368;2023-07-13T11:16:50;8.02;;;4.95;;
61291;SDS011;47165;42.664;23.368;2023-07-13T11:27:41;10.45;;;4.28;;
61291;SDS011;47165;42.664;23.368;2023-07-13T11:30:13;13.75;;;8.70;;
61291;SDS011;47165;42.664;23.368;2023-07-13T11:32:46;6.88;;;4.47;;
61291;SDS011;47165;42.664;23.368;2023-07-13T11:35:17;13.07;;;4.25;;
61291;SDS011;47165;42.664;23.368;2023-07-13T11:37:48;9.57;;;4.40;;
61291;SDS011;47165;42.664;23.368;2023-07-13T11:40:17;5.05;;;3.63;;
61291;SDS011;47165;42.664;23.368;2023-07-13T11:42:43;9.98;;;4.18;;
61291;SDS011;47165;42.664;23.368;2023-07-13T11:45:19;14.93;;;5.28;;
61291;SDS011;47165;42.664;23.368;2023-07-13T11:47:48;6.72;;;4.70;;
61291;SDS011;47165;42.664;23.368;2023-07-13T11:50:21;8.20;;;3.90;;
61291;SDS011;47165;42.664;23.368;2023-07-13T11:55:16;5.78;;;3.95;;
61291;SDS011;47165;42.664;23.368;2023-07-13T11:57:45;9.52;;;4.38;;
61291;SDS011;47165;42.664;23.368;2023-07-13T12:00:21;13.10;;;4.45;;
61291;SDS011;47165;42.664;23.368;2023-07-13T12:02:50;13.63;;;4.70;;
61291;SDS011;47165;42.664;23.368;2023-07-13T12:05:18;17.48;;;4.50;;
61291;SDS011;47165;42.664;23.368;2023-07-13T12:07:45;8.65;;;4.00;;
61291;SDS011;47165;42.664;23.368;2023-07-13T12:12:52;9.57;;;4.95;;
61291;SDS011;47165;42.664;23.368;2023-07-13T12:15:19;10.40;;;4.25;;
61291;SDS011;47165;42.664;23.368;2023-07-13T12:17:47;6.30;;;4.20;;
61291;SDS011;47165;42.664;23.368;2023-07-13T12:20:21;9.77;;;5.18;;
61291;SDS011;47165;42.664;23.368;2023-07-13T12:22:51;10.10;;;4.47;;
61291;SDS011;47165;42.664;23.368;2023-07-13T12:25:17;12.25;;;5.25;;
61291;SDS011;47165;42.664;23.368;2023-07-13T12:27:50;9.82;;;4.72;;
61291;SDS011;47165;42.664;23.368;2023-07-13T12:30:24;8.50;;;4.07;;
61291;SDS011;47165;42.664;23.368;2023-07-13T12:32:58;7.13;;;4.85;;
61291;SDS011;47165;42.664;23.368;2023-07-13T12:35:46;6.85;;;3.97;;
61291;SDS011;47165;42.664;23.368;2023-07-13T12:38:15;11.27;;;4.25;;
61291;SDS011;47165;42.664;23.368;2023-07-13T12:40:42;8.60;;;4.07;;
61291;SDS011;47165;42.664;23.368;2023-07-13T12:43:11;8.77;;;3.92;;
61291;SDS011;47165;42.664;23.368;2023-07-13T12:45:39;10.07;;;5.15;;
61291;SDS011;47165;42.664;23.368;2023-07-13T12:48:21;12.13;;;5.72;;
61291;SDS011;47165;42.664;23.368;2023-07-13T12:50:48;9.45;;;3.85;;
61291;SDS011;47165;42.664;23.368;2023-07-13T12:53:17;5.95;;;3.83;;
61291;SDS011;47165;42.664;23.368;2023-07-13T12:55:55;8.80;;;3.15;;
61291;SDS011;47165;42.664;23.368;2023-07-13T12:58:36;4.90;;;3.13;;
61291;SDS011;47165;42.664;23.368;2023-07-13T13:01:07;6.03;;;3.75;;
61291;SDS011;47165;42.664;23.368;2023-07-13T13:03:36;8.07;;;3.92;;
61291;SDS011;47165;42.664;23.368;2023-07-13T13:06:06;9.38;;;4.15;;
61291;SDS011;47165;42.664;23.368;2023-07-13T13:08:45;10.85;;;4.22;;
61291;SDS011;47165;42.664;23.368;2023-07-13T13:11:11;13.77;;;4.28;;
61291;SDS011;47165;42.664;23.368;2023-07-13T13:13:37;9.13;;;4.00;;
61291;SDS011;47165;42.664;23.368;2023-07-13T13:16:08;9.35;;;4.32;;
61291;SDS011;47165;42.664;23.368;2023-07-13T13:18:35;10.65;;;5.47;;
61291;SDS011;47165;42.664;23.368;2023-07-13T13:21:01;16.13;;;6.43;;
61291;SDS011;47165;42.664;23.368;2023-07-13T13:23:27;11.88;;;6.78;;
61291;SDS011;47165;42.664;23.368;2023-07-13T13:25:53;9.32;;;5.38;;
61291;SDS011;47165;42.664;23.368;2023-07-13T13:28:19;14.98;;;5.38;;
61291;SDS011;47165;42.664;23.368;2023-07-13T13:30:46;11.73;;;5.55;;
61291;SDS011;47165;42.664;23.368;2023-07-13T13:33:15;7.22;;;4.40;;
61291;SDS011;47165;42.664;23.368;2023-07-13T13:35:42;13.48;;;5.75;;
61291;SDS011;47165;42.664;23.368;2023-07-13T13:38:09;9.27;;;4.65;;
61291;SDS011;47165;42.664;23.368;2023-07-13T13:40:37;12.40;;;4.78;;
61291;SDS011;47165;42.664;23.368;2023-07-13T13:43:04;12.75;;;5.13;;
61291;SDS011;47165;42.664;23.368;2023-07-13T13:45:44;10.43;;;4.70;;
61291;SDS011;47165;42.664;23.368;2023-07-13T13:48:18;8.68;;;4.35;;
61291;SDS011;47165;42.664;23.368;2023-07-13T13:50:52;11.70;;;5.55;;
61291;SDS011;47165;42.664;23.368;2023-07-13T13:53:20;9.90;;;4.50;;
61291;SDS011;47165;42.664;23.368;2023-07-13T13:55:47;10.02;;;4.97;;
61291;SDS011;47165;42.664;23.368;2023-07-13T13:58:15;10.85;;;4.50;;
61291;SDS011;47165;42.664;23.368;2023-07-13T14:00:41;10.35;;;5.53;;
61291;SDS011;47165;42.664;23.368;2023-07-13T14:03:28;12.68;;;5.13;;
61291;SDS011;47165;42.664;23.368;2023-07-13T14:05:54;9.15;;;4.88;;
61291;SDS011;47165;42.664;23.368;2023-07-13T14:08:23;8.85;;;5.10;;
61291;SDS011;47165;42.664;23.368;2023-07-13T14:10:50;11.48;;;5.03;;
61291;SDS011;47165;42.664;23.368;2023-07-13T14:13:21;30.15;;;5.30;;
61291;SDS011;47165;42.664;23.368;2023-07-13T14:15:51;12.25;;;6.20;;
61291;SDS011;47165;42.664;23.368;2023-07-13T14:18:18;11.63;;;5.97;;
61291;SDS011;47165;42.664;23.368;2023-07-13T14:20:44;11.77;;;5.13;;
61291;SDS011;47165;42.664;23.368;2023-07-13T14:23:12;10.05;;;5.28;;
61291;SDS011;47165;42.664;23.368;2023-07-13T14:25:38;12.93;;;5.00;;
61291;SDS011;47165;42.664;23.368;2023-07-13T14:28:14;19.10;;;5.47;;
61291;SDS011;47165;42.664;23.368;2023-07-13T14:30:47;10.88;;;5.75;;
61291;SDS011;47165;42.664;23.368;2023-07-13T14:33:13;11.18;;;4.88;;
61291;SDS011;47165;42.664;23.368;2023-07-13T14:35:39;10.20;;;4.97;;
61291;SDS011;47165;42.664;23.368;2023-07-13T14:38:10;14.65;;;5.38;;
61291;SDS011;47165;42.664;23.368;2023-07-13T14:40:39;14.60;;;5.40;;
61291;SDS011;47165;42.664;23.368;2023-07-13T14:43:08;11.65;;;5.90;;
61291;SDS011;47165;42.664;23.368;2023-07-13T14:45:39;14.65;;;5.57;;
61291;SDS011;47165;42.664;23.368;2023-07-13T14:48:14;14.68;;;6.07;;
61291;SDS011;47165;42.664;23.368;2023-07-13T14:50:53;9.63;;;4.78;;
61291;SDS011;47165;42.664;23.368;2023-07-13T14:53:21;13.68;;;5.45;;
61291;SDS011;47165;42.664;23.368;2023-07-13T14:55:47;8.63;;;4.70;;
61291;SDS011;47165;42.664;23.368;2023-07-13T14:58:13;12.38;;;4.28;;
61291;SDS011;47165;42.664;23.368;2023-07-13T15:00:39;12.27;;;3.67;;
61291;SDS011;47165;42.664;23.368;2023-07-13T15:03:05;11.45;;;4.05;;
61291;SDS011;47165;42.664;23.368;2023-07-13T15:05:41;11.23;;;3.95;;
61291;SDS011;47165;42.664;23.368;2023-07-13T15:08:07;11.38;;;4.20;;
61291;SDS011;47165;42.664;23.368;2023-07-13T15:10:35;10.82;;;3.88;;
61291;SDS011;47165;42.664;23.368;2023-07-13T15:13:14;12.85;;;4.63;;